sensor_id;sensor_type;location;lat;lon;timestamp;pressure;altitude;pressure_sealevel;temperature;humidity
55277;BME280;41136;51.478;-2.610;2023-06-24T00:00:22;101522.61;;;23.92;82.22
55277;BME280;41136;51.478;-2.610;2023-06-24T00:02:47;101519.10;;;23.92;81.27
55277;BME280;41136;51.478;-2.610;2023-06-24T00:05:12;101513.85;;;23.75;81.86
55277;BME280;41136;51.478;-2.610;2023-06-24T00:07:38;101513.57;;;24.29;80.87
55277;BME280;41136;51.478;-2.610;2023-06-24T00:10:03;101513.11;;;23.64;81.23
55277;BME280;41136;51.478;-2.610;2023-06-24T00:12:28;101511.73;;;23.14;81.71
55277;BME280;41136;51.478;-2.610;2023-06-24T00:14:53;101513.87;;;23.78;80.62
55277;BME280;41136;51.478;-2.610;2023-06-24T00:17:19;101514.46;;;23.56;82.19
55277;BME280;41136;51.478;-2.610;2023-06-24T00:19:45;101515.98;;;23.15;83.72
55277;BME280;41136;51.478;-2.610;2023-06-24T00:22:10;101519.35;;;23.43;81.73
55277;BME280;41136;51.478;-2.610;2023-06-24T00:24:35;101519.27;;;22.91;83.21
55277;BME280;41136;51.478;-2.610;2023-06-24T00:27:00;101518.28;;;23.34;82.58
55277;BME280;41136;51.478;-2.610;2023-06-24T00:29:26;101524.98;;;22.43;84.16
55277;BME280;41136;51.478;-2.610;2023-06-24T00:31:51;101523.72;;;22.68;85.30
55277;BME280;41136;51.478;-2.610;2023-06-24T00:34:17;101524.58;;;22.59;85.24
55277;BME280;41136;51.478;-2.610;2023-06-24T00:36:43;101524.69;;;23.79;83.61
55277;BME280;41136;51.478;-2.610;2023-06-24T00:39:08;101528.43;;;23.27;83.46
55277;BME280;41136;51.478;-2.610;2023-06-24T00:41:35;101526.45;;;23.11;82.50
55277;BME280;41136;51.478;-2.610;2023-06-24T00:44:00;101529.15;;;23.31;82.64
55277;BME280;41136;51.478;-2.610;2023-06-24T00:46:25;101530.06;;;22.84;82.96
55277;BME280;41136;51.478;-2.610;2023-06-24T00:48:50;101524.29;;;23.42;82.33
55277;BME280;41136;51.478;-2.610;2023-06-24T00:51:15;101523.15;;;23.58;82.53
55277;BME280;41136;51.478;-2.610;2023-06-24T00:53:40;101517.44;;;23.34;82.12
55277;BME280;41136;51.478;-2.610;2023-06-24T00:56:06;101522.60;;;22.48;84.22
55277;BME280;41136;51.478;-2.610;2023-06-24T00:58:32;101520.20;;;23.24;83.68
55277;BME280;41136;51.478;-2.610;2023-06-24T01:00:57;101522.26;;;23.13;83.66
55277;BME280;41136;51.478;-2.610;2023-06-24T01:03:22;101515.70;;;23.83;81.71
55277;BME280;41136;51.478;-2.610;2023-06-24T01:05:47;101515.46;;;22.25;84.13
55277;BME280;41136;51.478;-2.610;2023-06-24T01:08:13;101507.99;;;23.22;83.11
55277;BME280;41136;51.478;-2.610;2023-06-24T01:10:38;101509.86;;;22.97;83.44
55277;BME280;41136;51.478;-2.610;2023-06-24T01:13:04;101509.98;;;23.50;82.30
55277;BME280;41136;51.478;-2.610;2023-06-24T01:15:29;101511.61;;;23.80;82.21
55277;BME280;41136;51.478;-2.610;2023-06-24T01:17:59;101518.51;;;22.60;85.54
55277;BME280;41136;51.478;-2.610;2023-06-24T01:25:33;101517.73;;;21.29;86.72
55277;BME280;41136;51.478;-2.610;2023-06-24T01:33:04;101515.88;;;23.47;80.44
55277;BME280;41136;51.478;-2.610;2023-06-24T01:35:32;101515.25;;;23.73;79.48
55277;BME280;41136;51.478;-2.610;2023-06-24T01:37:54;101511.84;;;23.91;78.91
55277;BME280;41136;51.478;-2.610;2023-06-24T01:40:22;101506.57;;;21.93;83.34
55277;BME280;41136;51.478;-2.610;2023-06-24T01:42:45;101503.26;;;23.74;81.69
55277;BME280;41136;51.478;-2.610;2023-06-24T01:45:12;101498.35;;;23.11;82.84
55277;BME280;41136;51.478;-2.610;2023-06-24T01:47:36;101500.71;;;23.25;84.50
55277;BME280;41136;51.478;-2.610;2023-06-24T01:50:01;101502.19;;;22.73;85.48
55277;BME280;41136;51.478;-2.610;2023-06-24T01:52:28;101500.15;;;22.17;87.47
55277;BME280;41136;51.478;-2.610;2023-06-24T01:54:50;101500.77;;;22.39;89.29
55277;BME280;41136;51.478;-2.610;2023-06-24T01:57:16;101502.32;;;20.99;92.17
55277;BME280;41136;51.478;-2.610;2023-06-24T01:59:42;101499.68;;;21.63;92.48
55277;BME280;41136;51.478;-2.610;2023-06-24T02:02:06;101499.58;;;22.56;90.73
55277;BME280;41136;51.478;-2.610;2023-06-24T02:04:32;101496.40;;;22.80;90.39
55277;BME280;41136;51.478;-2.610;2023-06-24T02:07:00;101494.97;;;22.52;89.54
55277;BME280;41136;51.478;-2.610;2023-06-24T02:09:23;101494.26;;;22.46;90.99
55277;BME280;41136;51.478;-2.610;2023-06-24T02:11:48;101494.47;;;22.18;90.04
55277;BME280;41136;51.478;-2.610;2023-06-24T02:14:14;101494.56;;;21.66;93.09
55277;BME280;41136;51.478;-2.610;2023-06-24T02:16:40;101487.27;;;22.58;91.65
55277;BME280;41136;51.478;-2.610;2023-06-24T02:19:04;101485.85;;;22.07;90.97
55277;BME280;41136;51.478;-2.610;2023-06-24T02:21:30;101488.28;;;21.53;93.28
55277;BME280;41136;51.478;-2.610;2023-06-24T02:23:55;101485.33;;;22.15;92.85
55277;BME280;41136;51.478;-2.610;2023-06-24T02:26:20;101484.97;;;23.03;89.68
55277;BME280;41136;51.478;-2.610;2023-06-24T02:28:45;101480.86;;;22.69;90.82
55277;BME280;41136;51.478;-2.610;2023-06-24T02:31:11;101479.72;;;23.06;89.72
55277;BME280;41136;51.478;-2.610;2023-06-24T02:33:36;101477.58;;;22.50;89.87
55277;BME280;41136;51.478;-2.610;2023-06-24T02:36:01;101480.60;;;22.76;89.41
55277;BME280;41136;51.478;-2.610;2023-06-24T02:38:26;101482.77;;;22.50;90.28
55277;BME280;41136;51.478;-2.610;2023-06-24T02:40:52;101480.85;;;22.57;90.02
55277;BME280;41136;51.478;-2.610;2023-06-24T02:43:18;101481.96;;;23.18;89.23
55277;BME280;41136;51.478;-2.610;2023-06-24T02:45:43;101478.35;;;23.29;88.96
55277;BME280;41136;51.478;-2.610;2023-06-24T02:48:09;101477.58;;;23.48;87.66
55277;BME280;41136;51.478;-2.610;2023-06-24T02:50:33;101472.28;;;22.84;89.85
55277;BME280;41136;51.478;-2.610;2023-06-24T02:52:59;101469.69;;;22.48;89.73
55277;BME280;41136;51.478;-2.610;2023-06-24T02:55:24;101467.63;;;22.77;89.33
55277;BME280;41136;51.478;-2.610;2023-06-24T02:57:49;101467.75;;;22.48;90.42
55277;BME280;41136;51.478;-2.610;2023-06-24T03:00:15;101468.07;;;22.97;89.24
55277;BME280;41136;51.478;-2.610;2023-06-24T03:02:40;101471.11;;;23.19;89.11
55277;BME280;41136;51.478;-2.610;2023-06-24T03:05:06;101469.87;;;23.43;88.13
55277;BME280;41136;51.478;-2.610;2023-06-24T03:07:31;101470.40;;;23.43;88.24
55277;BME280;41136;51.478;-2.610;2023-06-24T03:09:55;101465.52;;;22.64;89.75
55277;BME280;41136;51.478;-2.610;2023-06-24T03:12:20;101460.10;;;22.44;89.88
55277;BME280;41136;51.478;-2.610;2023-06-24T03:14:46;101454.29;;;23.41;87.82
55277;BME280;41136;51.478;-2.610;2023-06-24T03:17:12;101455.14;;;23.11;88.44
55277;BME280;41136;51.478;-2.610;2023-06-24T03:19:37;101458.15;;;23.17;89.85
55277;BME280;41136;51.478;-2.610;2023-06-24T03:22:03;101462.92;;;22.88;89.78
55277;BME280;41136;51.478;-2.610;2023-06-24T03:24:27;101466.18;;;22.55;91.95
55277;BME280;41136;51.478;-2.610;2023-06-24T03:26:53;101468.89;;;22.31;92.86
55277;BME280;41136;51.478;-2.610;2023-06-24T03:29:18;101470.21;;;23.06;90.74
55277;BME280;41136;51.478;-2.610;2023-06-24T03:31:44;101466.34;;;23.13;89.72
55277;BME280;41136;51.478;-2.610;2023-06-24T03:34:09;101467.18;;;23.38;89.10
55277;BME280;41136;51.478;-2.610;2023-06-24T03:36:34;101464.07;;;23.62;88.08
55277;BME280;41136;51.478;-2.610;2023-06-24T03:38:59;101463.89;;;23.81;87.60
55277;BME280;41136;51.478;-2.610;2023-06-24T03:41:25;101466.06;;;23.16;90.13
55277;BME280;41136;51.478;-2.610;2023-06-24T03:43:50;101467.15;;;23.71;88.89
55277;BME280;41136;51.478;-2.610;2023-06-24T03:46:15;101467.94;;;23.01;89.03
55277;BME280;41136;51.478;-2.610;2023-06-24T03:48:40;101469.38;;;23.55;88.36
55277;BME280;41136;51.478;-2.610;2023-06-24T03:51:06;101468.13;;;23.80;87.80
55277;BME280;41136;51.478;-2.610;2023-06-24T03:53:31;101467.86;;;23.56;88.36
55277;BME280;41136;51.478;-2.610;2023-06-24T03:55:56;101470.69;;;23.53;88.73
55277;BME280;41136;51.478;-2.610;2023-06-24T04:00:38;101475.16;;;23.43;86.51
55277;BME280;41136;51.478;-2.610;2023-06-24T04:03:04;101470.75;;;22.66;88.35
55277;BME280;41136;51.478;-2.610;2023-06-24T04:05:29;101469.66;;;23.31;86.70
55277;BME280;41136;51.478;-2.610;2023-06-24T04:07:54;101472.67;;;23.55;85.85
55277;BME280;41136;51.478;-2.610;2023-06-24T04:10:19;101462.11;;;24.48;85.61
55277;BME280;41136;51.478;-2.610;2023-06-24T04:12:45;101459.52;;;24.36;86.24
55277;BME280;41136;51.478;-2.610;2023-06-24T04:15:11;101458.67;;;22.56;91.04
55277;BME280;41136;51.478;-2.610;2023-06-24T04:17:36;101463.03;;;22.08;93.69
55277;BME280;41136;51.478;-2.610;2023-06-24T04:20:02;101467.58;;;22.49;93.00
55277;BME280;41136;51.478;-2.610;2023-06-24T04:22:27;101464.87;;;23.08;93.33
55277;BME280;41136;51.478;-2.610;2023-06-24T04:24:52;101463.99;;;23.49;91.07
55277;BME280;41136;51.478;-2.610;2023-06-24T04:27:17;101460.27;;;23.41;91.01
55277;BME280;41136;51.478;-2.610;2023-06-24T04:33:23;101467.13;;;22.64;91.05
55277;BME280;41136;51.478;-2.610;2023-06-24T04:35:48;101466.75;;;23.48;87.99
55277;BME280;41136;51.478;-2.610;2023-06-24T04:39:55;101471.52;;;21.64;92.67
55277;BME280;41136;51.478;-2.610;2023-06-24T04:42:21;101476.04;;;23.48;87.28
55277;BME280;41136;51.478;-2.610;2023-06-24T04:44:46;101476.40;;;23.87;85.82
55277;BME280;41136;51.478;-2.610;2023-06-24T04:47:11;101475.71;;;23.85;86.72
55277;BME280;41136;51.478;-2.610;2023-06-24T04:49:36;101472.51;;;23.93;87.56
55277;BME280;41136;51.478;-2.610;2023-06-24T04:52:02;101470.01;;;23.87;89.79
55277;BME280;41136;51.478;-2.610;2023-06-24T04:54:27;101471.50;;;24.17;88.63
55277;BME280;41136;51.478;-2.610;2023-06-24T04:56:53;101472.25;;;23.99;88.59
55277;BME280;41136;51.478;-2.610;2023-06-24T04:59:17;101472.17;;;23.36;90.02
55277;BME280;41136;51.478;-2.610;2023-06-24T05:01:43;101472.73;;;24.13;89.62
55277;BME280;41136;51.478;-2.610;2023-06-24T05:04:08;101474.26;;;24.24;89.44
55277;BME280;41136;51.478;-2.610;2023-06-24T05:06:33;101473.94;;;24.12;89.89
55277;BME280;41136;51.478;-2.610;2023-06-24T05:08:58;101471.10;;;23.03;92.97
55277;BME280;41136;51.478;-2.610;2023-06-24T05:11:24;101471.43;;;24.21;90.26
55277;BME280;41136;51.478;-2.610;2023-06-24T05:13:50;101470.13;;;24.26;90.09
55277;BME280;41136;51.478;-2.610;2023-06-24T05:16:15;101468.75;;;24.00;90.80
55277;BME280;41136;51.478;-2.610;2023-06-24T05:18:41;101469.39;;;23.23;92.73
55277;BME280;41136;51.478;-2.610;2023-06-24T05:21:06;101473.98;;;23.06;92.91
55277;BME280;41136;51.478;-2.610;2023-06-24T05:23:32;101478.24;;;22.68;96.01
55277;BME280;41136;51.478;-2.610;2023-06-24T05:25:58;101478.91;;;22.91;94.07
55277;BME280;41136;51.478;-2.610;2023-06-24T05:28:23;101482.25;;;23.15;94.65
55277;BME280;41136;51.478;-2.610;2023-06-24T05:30:48;101480.83;;;23.71;93.02
55277;BME280;41136;51.478;-2.610;2023-06-24T05:33:14;101481.18;;;23.62;93.02
55277;BME280;41136;51.478;-2.610;2023-06-24T05:35:39;101486.41;;;23.34;92.98
55277;BME280;41136;51.478;-2.610;2023-06-24T05:38:04;101478.73;;;23.75;93.54
55277;BME280;41136;51.478;-2.610;2023-06-24T05:40:29;101479.12;;;23.15;95.18
55277;BME280;41136;51.478;-2.610;2023-06-24T05:42:55;101473.86;;;23.25;94.73
55277;BME280;41136;51.478;-2.610;2023-06-24T05:45:20;101473.40;;;24.00;92.83
55277;BME280;41136;51.478;-2.610;2023-06-24T05:47:46;101475.41;;;23.35;93.56
55277;BME280;41136;51.478;-2.610;2023-06-24T05:50:11;101477.66;;;21.82;99.50
55277;BME280;41136;51.478;-2.610;2023-06-24T05:52:37;101476.88;;;23.42;95.70
55277;BME280;41136;51.478;-2.610;2023-06-24T05:55:04;101481.83;;;23.43;95.68
55277;BME280;41136;51.478;-2.610;2023-06-24T05:57:28;101477.75;;;23.45;95.82
55277;BME280;41136;51.478;-2.610;2023-06-24T05:59:53;101476.23;;;23.01;95.72
55277;BME280;41136;51.478;-2.610;2023-06-24T06:02:19;101478.82;;;23.16;95.83
55277;BME280;41136;51.478;-2.610;2023-06-24T06:04:44;101481.78;;;23.17;96.69
55277;BME280;41136;51.478;-2.610;2023-06-24T06:07:09;101478.69;;;23.12;96.15
55277;BME280;41136;51.478;-2.610;2023-06-24T06:09:34;101481.21;;;23.40;95.18
55277;BME280;41136;51.478;-2.610;2023-06-24T06:11:59;101483.95;;;23.68;95.33
55277;BME280;41136;51.478;-2.610;2023-06-24T06:14:25;101482.69;;;23.05;96.41
55277;BME280;41136;51.478;-2.610;2023-06-24T06:16:51;101485.22;;;23.86;95.27
55277;BME280;41136;51.478;-2.610;2023-06-24T06:19:16;101488.61;;;24.22;94.04
55277;BME280;41136;51.478;-2.610;2023-06-24T06:21:42;101490.76;;;22.52;96.41
55277;BME280;41136;51.478;-2.610;2023-06-24T06:24:08;101494.07;;;22.48;97.88
55277;BME280;41136;51.478;-2.610;2023-06-24T06:26:33;101500.28;;;23.46;96.80
55277;BME280;41136;51.478;-2.610;2023-06-24T06:28:58;101502.25;;;23.34;95.21
55277;BME280;41136;51.478;-2.610;2023-06-24T06:31:23;101503.37;;;22.29;99.76
55277;BME280;41136;51.478;-2.610;2023-06-24T06:33:48;101508.14;;;22.77;98.73
55277;BME280;41136;51.478;-2.610;2023-06-24T06:36:14;101508.31;;;23.46;97.31
55277;BME280;41136;51.478;-2.610;2023-06-24T06:38:40;101509.22;;;23.40;96.74
55277;BME280;41136;51.478;-2.610;2023-06-24T06:41:05;101509.43;;;23.56;97.08
55277;BME280;41136;51.478;-2.610;2023-06-24T06:43:30;101509.79;;;24.37;95.74
55277;BME280;41136;51.478;-2.610;2023-06-24T06:45:56;101509.56;;;23.62;95.70
55277;BME280;41136;51.478;-2.610;2023-06-24T06:48:21;101511.67;;;23.53;95.99
55277;BME280;41136;51.478;-2.610;2023-06-24T06:50:47;101519.15;;;23.42;95.54
55277;BME280;41136;51.478;-2.610;2023-06-24T06:53:13;101520.76;;;23.32;96.57
55277;BME280;41136;51.478;-2.610;2023-06-24T06:55:38;101521.35;;;23.88;95.31
55277;BME280;41136;51.478;-2.610;2023-06-24T06:58:03;101520.10;;;23.85;95.19
55277;BME280;41136;51.478;-2.610;2023-06-24T07:00:29;101526.14;;;23.79;95.65
55277;BME280;41136;51.478;-2.610;2023-06-24T07:02:55;101528.35;;;23.92;95.16
55277;BME280;41136;51.478;-2.610;2023-06-24T07:05:20;101531.62;;;23.53;96.71
55277;BME280;41136;51.478;-2.610;2023-06-24T07:07:46;101530.43;;;23.02;97.22
55277;BME280;41136;51.478;-2.610;2023-06-24T07:10:11;101532.98;;;22.75;99.06
55277;BME280;41136;51.478;-2.610;2023-06-24T07:12:36;101528.19;;;22.77;97.88
55277;BME280;41136;51.478;-2.610;2023-06-24T07:15:01;101524.43;;;23.28;96.24
55277;BME280;41136;51.478;-2.610;2023-06-24T07:17:27;101525.22;;;22.92;98.47
55277;BME280;41136;51.478;-2.610;2023-06-24T07:19:53;101527.36;;;23.39;96.85
55277;BME280;41136;51.478;-2.610;2023-06-24T07:22:18;101528.14;;;22.82;98.07
55277;BME280;41136;51.478;-2.610;2023-06-24T07:24:43;101524.10;;;23.51;97.29
55277;BME280;41136;51.478;-2.610;2023-06-24T07:27:08;101526.90;;;23.48;97.13
55277;BME280;41136;51.478;-2.610;2023-06-24T07:29:34;101529.85;;;23.48;97.85
55277;BME280;41136;51.478;-2.610;2023-06-24T07:31:59;101532.89;;;23.65;97.07
55277;BME280;41136;51.478;-2.610;2023-06-24T07:34:24;101535.58;;;22.52;99.91
55277;BME280;41136;51.478;-2.610;2023-06-24T07:36:49;101536.37;;;23.89;97.06
55277;BME280;41136;51.478;-2.610;2023-06-24T07:39:15;101541.60;;;22.71;99.92
55277;BME280;41136;51.478;-2.610;2023-06-24T07:41:40;101541.35;;;22.86;100.00
55277;BME280;41136;51.478;-2.610;2023-06-24T07:44:05;101539.80;;;23.34;99.13
55277;BME280;41136;51.478;-2.610;2023-06-24T07:46:30;101544.01;;;22.76;97.18
55277;BME280;41136;51.478;-2.610;2023-06-24T07:48:56;101543.42;;;22.69;99.63
55277;BME280;41136;51.478;-2.610;2023-06-24T07:51:21;101545.99;;;22.96;98.87
55277;BME280;41136;51.478;-2.610;2023-06-24T07:53:46;101546.46;;;22.15;100.00
55277;BME280;41136;51.478;-2.610;2023-06-24T07:56:11;101551.71;;;22.58;100.00
55277;BME280;41136;51.478;-2.610;2023-06-24T07:58:37;101548.56;;;22.45;100.00
55277;BME280;41136;51.478;-2.610;2023-06-24T08:01:02;101552.58;;;23.19;99.61
55277;BME280;41136;51.478;-2.610;2023-06-24T08:03:28;101548.78;;;22.89;99.96
55277;BME280;41136;51.478;-2.610;2023-06-24T08:05:53;101549.61;;;22.92;99.70
55277;BME280;41136;51.478;-2.610;2023-06-24T08:08:19;101545.60;;;22.76;99.89
55277;BME280;41136;51.478;-2.610;2023-06-24T08:10:44;101543.51;;;23.06;99.67
55277;BME280;41136;51.478;-2.610;2023-06-24T08:13:09;101542.55;;;22.49;100.00
55277;BME280;41136;51.478;-2.610;2023-06-24T08:15:35;101545.62;;;22.82;100.00
55277;BME280;41136;51.478;-2.610;2023-06-24T08:18:00;101544.99;;;23.31;98.22
55277;BME280;41136;51.478;-2.610;2023-06-24T08:20:25;101546.83;;;22.98;98.03
55277;BME280;41136;51.478;-2.610;2023-06-24T08:22:50;101542.29;;;23.10;99.11
55277;BME280;41136;51.478;-2.610;2023-06-24T08:25:16;101541.78;;;23.04;100.00
55277;BME280;41136;51.478;-2.610;2023-06-24T08:27:41;101543.47;;;23.05;99.83
55277;BME280;41136;51.478;-2.610;2023-06-24T08:30:07;101542.70;;;23.72;98.96
55277;BME280;41136;51.478;-2.610;2023-06-24T08:32:32;101542.69;;;23.54;97.07
55277;BME280;41136;51.478;-2.610;2023-06-24T08:34:57;101545.18;;;23.13;99.41
55277;BME280;41136;51.478;-2.610;2023-06-24T08:37:23;101544.39;;;23.23;99.04
55277;BME280;41136;51.478;-2.610;2023-06-24T08:39:49;101545.64;;;23.42;97.93
55277;BME280;41136;51.478;-2.610;2023-06-24T08:42:14;101549.87;;;24.44;94.97
55277;BME280;41136;51.478;-2.610;2023-06-24T08:44:40;101543.28;;;24.08;94.72
55277;BME280;41136;51.478;-2.610;2023-06-24T08:47:05;101536.65;;;24.12;94.15
55277;BME280;41136;51.478;-2.610;2023-06-24T08:49:31;101533.47;;;23.72;95.94
55277;BME280;41136;51.478;-2.610;2023-06-24T08:52:00;101529.66;;;24.04;94.54
55277;BME280;41136;51.478;-2.610;2023-06-24T08:54:22;101532.20;;;24.02;93.58
55277;BME280;41136;51.478;-2.610;2023-06-24T08:56:46;101532.42;;;23.81;95.31
55277;BME280;41136;51.478;-2.610;2023-06-24T08:59:11;101528.13;;;23.59;96.10
55277;BME280;41136;51.478;-2.610;2023-06-24T09:01:37;101529.64;;;24.29;95.30
55277;BME280;41136;51.478;-2.610;2023-06-24T09:04:02;101525.53;;;24.81;92.92
55277;BME280;41136;51.478;-2.610;2023-06-24T09:06:27;101528.34;;;25.38;91.04
55277;BME280;41136;51.478;-2.610;2023-06-24T09:08:53;101529.38;;;23.57;93.56
55277;BME280;41136;51.478;-2.610;2023-06-24T09:11:22;101531.45;;;24.04;93.61
55277;BME280;41136;51.478;-2.610;2023-06-24T09:13:43;101526.65;;;23.49;94.24
55277;BME280;41136;51.478;-2.610;2023-06-24T09:16:12;101525.35;;;24.25;93.83
55277;BME280;41136;51.478;-2.610;2023-06-24T09:18:34;101524.58;;;23.60;95.15
55277;BME280;41136;51.478;-2.610;2023-06-24T09:21:00;101529.70;;;24.23;94.58
55277;BME280;41136;51.478;-2.610;2023-06-24T09:23:26;101523.24;;;23.92;96.20
55277;BME280;41136;51.478;-2.610;2023-06-24T09:25:56;101518.97;;;23.94;95.57
55277;BME280;41136;51.478;-2.610;2023-06-24T09:28:15;101522.77;;;24.42;94.87
55277;BME280;41136;51.478;-2.610;2023-06-24T09:30:40;101517.02;;;23.62;96.37
55277;BME280;41136;51.478;-2.610;2023-06-24T09:33:10;101518.39;;;23.96;95.62
55277;BME280;41136;51.478;-2.610;2023-06-24T09:35:35;101518.40;;;24.65;95.20
55277;BME280;41136;51.478;-2.610;2023-06-24T09:37:57;101518.44;;;24.08;94.13
55277;BME280;41136;51.478;-2.610;2023-06-24T09:40:22;101518.57;;;24.20;93.29
55277;BME280;41136;51.478;-2.610;2023-06-24T09:42:50;101518.48;;;24.50;93.44
55277;BME280;41136;51.478;-2.610;2023-06-24T09:45:13;101510.53;;;25.38;91.02
55277;BME280;41136;51.478;-2.610;2023-06-24T09:47:38;101510.36;;;24.38;91.73
55277;BME280;41136;51.478;-2.610;2023-06-24T09:50:03;101504.88;;;24.77;92.13
55277;BME280;41136;51.478;-2.610;2023-06-24T09:52:28;101509.40;;;24.52;91.52
55277;BME280;41136;51.478;-2.610;2023-06-24T09:54:54;101512.87;;;24.28;91.94
55277;BME280;41136;51.478;-2.610;2023-06-24T09:57:23;101507.96;;;24.29;92.27
55277;BME280;41136;51.478;-2.610;2023-06-24T09:59:44;101502.36;;;25.06;90.30
55277;BME280;41136;51.478;-2.610;2023-06-24T10:02:12;101502.57;;;24.82;90.50
55277;BME280;41136;51.478;-2.610;2023-06-24T10:04:35;101497.31;;;25.77;88.65
55277;BME280;41136;51.478;-2.610;2023-06-24T10:07:01;101495.16;;;25.45;87.07
55277;BME280;41136;51.478;-2.610;2023-06-24T10:09:26;101487.76;;;25.45;87.69
55277;BME280;41136;51.478;-2.610;2023-06-24T10:11:51;101484.81;;;25.77;86.88
55277;BME280;41136;51.478;-2.610;2023-06-24T10:14:16;101480.44;;;26.19;84.91
55277;BME280;41136;51.478;-2.610;2023-06-24T10:16:44;101484.46;;;25.69;85.78
55277;BME280;41136;51.478;-2.610;2023-06-24T10:19:08;101486.45;;;25.82;84.91
55277;BME280;41136;51.478;-2.610;2023-06-24T10:23:58;101485.45;;;24.97;88.86
55277;BME280;41136;51.478;-2.610;2023-06-24T10:26:26;101487.58;;;24.50;89.33
55277;BME280;41136;51.478;-2.610;2023-06-24T10:31:15;101487.05;;;23.65;95.68
55277;BME280;41136;51.478;-2.610;2023-06-24T10:33:40;101486.04;;;23.28;99.63
55277;BME280;41136;51.478;-2.610;2023-06-24T10:38:31;101479.66;;;22.80;100.00
55277;BME280;41136;51.478;-2.610;2023-06-24T10:40:57;101480.16;;;22.48;100.00
55277;BME280;41136;51.478;-2.610;2023-06-24T10:43:27;101477.64;;;21.60;100.00
55277;BME280;41136;51.478;-2.610;2023-06-24T10:45:49;101473.22;;;22.43;100.00
55277;BME280;41136;51.478;-2.610;2023-06-24T10:48:13;101471.10;;;22.30;100.00
55277;BME280;41136;51.478;-2.610;2023-06-24T10:50:39;101465.76;;;22.39;100.00
55277;BME280;41136;51.478;-2.610;2023-06-24T10:53:08;101459.52;;;23.42;100.00
55277;BME280;41136;51.478;-2.610;2023-06-24T10:55:30;101461.34;;;23.52;100.00
55277;BME280;41136;51.478;-2.610;2023-06-24T11:00:21;101464.95;;;24.27;97.85
55277;BME280;41136;51.478;-2.610;2023-06-24T11:02:47;101461.78;;;24.03;100.00
55277;BME280;41136;51.478;-2.610;2023-06-24T11:05:12;101459.64;;;23.75;100.00
55277;BME280;41136;51.478;-2.610;2023-06-24T11:07:38;101459.30;;;22.96;100.00
55277;BME280;41136;51.478;-2.610;2023-06-24T11:10:05;101459.25;;;23.75;100.00
55277;BME280;41136;51.478;-2.610;2023-06-24T11:12:31;101457.93;;;23.89;98.67
55277;BME280;41136;51.478;-2.610;2023-06-24T11:14:56;101453.64;;;24.11;96.07
55277;BME280;41136;51.478;-2.610;2023-06-24T11:17:20;101453.49;;;24.02;96.89
55277;BME280;41136;51.478;-2.610;2023-06-24T11:19:45;101446.98;;;25.01;94.22
55277;BME280;41136;51.478;-2.610;2023-06-24T11:22:11;101445.69;;;23.94;96.68
55277;BME280;41136;51.478;-2.610;2023-06-24T11:24:36;101443.21;;;23.49;98.80
55277;BME280;41136;51.478;-2.610;2023-06-24T11:27:04;101439.80;;;24.46;96.09
55277;BME280;41136;51.478;-2.610;2023-06-24T11:29:28;101437.75;;;24.26;94.44
55277;BME280;41136;51.478;-2.610;2023-06-24T11:31:53;101435.58;;;25.53;92.28
55277;BME280;41136;51.478;-2.610;2023-06-24T11:34:18;101429.96;;;25.30;91.82
55277;BME280;41136;51.478;-2.610;2023-06-24T11:36:43;101422.61;;;25.58;91.16
55277;BME280;41136;51.478;-2.610;2023-06-24T11:39:08;101422.29;;;25.89;89.26
55277;BME280;41136;51.478;-2.610;2023-06-24T11:41:34;101422.35;;;26.05;88.81
55277;BME280;41136;51.478;-2.610;2023-06-24T11:43:59;101418.40;;;25.98;86.76
55277;BME280;41136;51.478;-2.610;2023-06-24T11:46:25;101414.36;;;25.75;87.16
55277;BME280;41136;51.478;-2.610;2023-06-24T11:48:49;101414.67;;;25.17;88.21
55277;BME280;41136;51.478;-2.610;2023-06-24T11:51:15;101415.70;;;24.63;89.18
55277;BME280;41136;51.478;-2.610;2023-06-24T11:53:41;101411.49;;;26.33;86.34
55277;BME280;41136;51.478;-2.610;2023-06-24T11:56:05;101408.28;;;25.88;85.04
55277;BME280;41136;51.478;-2.610;2023-06-24T11:58:34;101409.74;;;25.47;87.53
55277;BME280;41136;51.478;-2.610;2023-06-24T12:00:56;101406.08;;;26.14;83.14
55277;BME280;41136;51.478;-2.610;2023-06-24T12:03:22;101400.26;;;26.87;81.15
55277;BME280;41136;51.478;-2.610;2023-06-24T12:05:47;101398.64;;;26.91;79.95
55277;BME280;41136;51.478;-2.610;2023-06-24T12:08:12;101397.75;;;26.33;81.98
55277;BME280;41136;51.478;-2.610;2023-06-24T12:10:38;101398.97;;;27.83;78.47
55277;BME280;41136;51.478;-2.610;2023-06-24T12:13:03;101399.28;;;27.84;78.26
55277;BME280;41136;51.478;-2.610;2023-06-24T12:15:28;101403.00;;;27.28;76.88
55277;BME280;41136;51.478;-2.610;2023-06-24T12:17:54;101405.63;;;26.20;79.28
55277;BME280;41136;51.478;-2.610;2023-06-24T12:20:19;101399.11;;;27.12;79.34
55277;BME280;41136;51.478;-2.610;2023-06-24T12:22:44;101396.19;;;27.22;77.65
55277;BME280;41136;51.478;-2.610;2023-06-24T12:25:09;101391.20;;;26.60;78.26
55277;BME280;41136;51.478;-2.610;2023-06-24T12:27:34;101389.59;;;26.56;78.11
55277;BME280;41136;51.478;-2.610;2023-06-24T12:29:59;101388.12;;;27.88;76.38
55277;BME280;41136;51.478;-2.610;2023-06-24T12:32:25;101388.65;;;28.92;71.66
55277;BME280;41136;51.478;-2.610;2023-06-24T12:34:50;101382.66;;;29.06;69.98
55277;BME280;41136;51.478;-2.610;2023-06-24T12:37:15;101378.62;;;27.51;71.27
55277;BME280;41136;51.478;-2.610;2023-06-24T12:39:40;101382.32;;;25.79;77.98
55277;BME280;41136;51.478;-2.610;2023-06-24T12:42:06;101384.84;;;24.95;84.29
55277;BME280;41136;51.478;-2.610;2023-06-24T12:44:31;101386.21;;;24.58;86.99
55277;BME280;41136;51.478;-2.610;2023-06-24T12:46:56;101383.75;;;25.26;86.86
55277;BME280;41136;51.478;-2.610;2023-06-24T12:49:22;101377.43;;;25.52;85.43
55277;BME280;41136;51.478;-2.610;2023-06-24T12:51:47;101372.41;;;26.60;82.15
55277;BME280;41136;51.478;-2.610;2023-06-24T12:54:12;101368.59;;;27.15;78.00
55277;BME280;41136;51.478;-2.610;2023-06-24T12:56:37;101368.75;;;26.29;78.52